Decoded Metar for KSFM (SANFORD MUNI in ME, USA) (IATA:SFM) | Meteo·Mobile Aviation Weather
aviador You're here:

KSFM Decoded Metar

SANFORD MUNI in ME, USA
Report Time2018-10-18 11:56:00
UTC Time2018-10-18 12:04:27
Flight Rules vfr VFR
Wind300° at 10 Gusting to 19 kt
W.Decomp.*RWY 32: 10.0 kt HW 0.5 kt LCW
RWY 25: 3.9 kt HW 9.2 kt RCW
W.Rank300° ranks 9
Current wind is above 300° avg. (8.1)
Visibility9999 m
Phenomena:N/A
Clouds:N/A
Expected CloudBase > 3,200 ft AGL from Temp-Dew spread
CeilingNone
Temp02°C (ISA -13)
Dew Point-6°C (56% RH)
AAT-4.3°C
QNH1019 hPa
Density Alt-1,427 ft
Elevation243 ft
Report Wrong Elevation
Raw Report
METAR KSFM 181156Z AUTO 30010G19KT 10SM CLR 02/M06 A3009 RMK AO2 SLP195
60002 70008 T00221061 10033 20011 51032 FZRANO=

Extra information for KSFM:More info

Metar Taf Metar & Taf Last 4 Metars F.Rules Stats Wind Profile Meteogram Temp Stats Airport Information Weather charts Add Link Nearby VenuesMetar ALERT Operation Metar Decoded Social comments

AIRNAV info for KSFM